Time,TemperatureF,DewpointF,PressureIn,WindDirection,WindDirectionDegrees,WindSpeedMPH,WindSpeedGustMPH,Humidity,HourlyPrecipIn,Conditions,Clouds,dailyrainin,SoftwareType,DateUTC
2013-04-16 00:14:00,72.6,66.0,29.72,SE,146,8.0,11.0,79,0.00,,,0.00,weatherlink.com 1.10,2013-04-16 05:14:00,
2013-04-16 00:29:00,72.6,66.0,29.72,SE,145,8.0,13.0,79,0.00,,,0.00,weatherlink.com 1.10,2013-04-16 05:29:00,
2013-04-16 00:44:00,72.3,66.0,29.72,SSE,156,9.0,14.0,80,0.00,,,0.00,weatherlink.com 1.10,2013-04-16 05:44:00,
2013-04-16 00:59:00,72.0,66.0,29.72,SSE,156,6.0,11.0,80,0.00,,,0.00,weatherlink.com 1.10,2013-04-16 05:59:00,
2013-04-16 01:14:00,71.7,66.0,29.72,SSE,154,10.0,15.0,82,0.00,,,0.00,weatherlink.com 1.10,2013-04-16 06:14:00,
2013-04-16 01:29:00,71.3,66.0,29.72,SSE,160,9.0,17.0,83,0.00,,,0.00,weatherlink.com 1.10,2013-04-16 06:29:00,
2013-04-16 01:44:00,70.6,66.0,29.72,SSE,157,13.0,16.0,85,0.00,,,0.00,weatherlink.com 1.10,2013-04-16 06:44:00,
2013-04-16 01:59:00,70.3,66.0,29.72,South,171,13.0,18.0,86,0.00,,,0.00,weatherlink.com 1.10,2013-04-16 06:59:00,
2013-04-16 02:14:00,70.5,66.0,29.73,South,184,12.0,18.0,85,0.00,,,0.00,weatherlink.com 1.10,2013-04-16 07:14:00,
2013-04-16 02:29:00,70.5,66.0,29.73,South,175,10.0,19.0,85,0.00,,,0.00,weatherlink.com 1.10,2013-04-16 07:29:00,
2013-04-16 02:44:00,70.4,65.0,29.73,South,182,13.0,22.0,84,0.00,,,0.00,weatherlink.com 1.10,2013-04-16 07:44:00,
2013-04-16 02:59:00,70.3,65.0,29.73,South,175,12.0,18.0,84,0.00,,,0.00,weatherlink.com 1.10,2013-04-16 07:59:00,
2013-04-16 03:14:00,69.9,65.0,29.73,South,183,13.0,26.0,83,0.00,,,0.00,weatherlink.com 1.10,2013-04-16 08:14:00,
2013-04-16 03:29:00,69.7,65.0,29.73,South,182,11.0,17.0,84,0.00,,,0.00,weatherlink.com 1.10,2013-04-16 08:29:00,
2013-04-16 03:44:00,69.7,65.0,29.73,SSE,167,8.0,12.0,85,0.00,,,0.00,weatherlink.com 1.10,2013-04-16 08:44:00,
2013-04-16 03:59:00,69.6,64.0,29.73,South,176,12.0,18.0,83,0.00,,,0.00,weatherlink.com 1.10,2013-04-16 08:59:00,
2013-04-16 04:15:00,69.5,64.0,29.74,South,169,10.0,18.0,83,0.00,,,0.00,weatherlink.com 1.10,2013-04-16 09:15:00,
2013-04-16 04:30:00,69.5,64.0,29.73,South,171,14.0,19.0,82,0.00,,,0.00,weatherlink.com 1.10,2013-04-16 09:30:00,
2013-04-16 04:45:00,69.7,64.0,29.74,SSW,199,13.0,23.0,81,0.00,,,0.00,weatherlink.com 1.10,2013-04-16 09:45:00,
2013-04-16 05:00:00,69.5,63.0,29.74,South,180,9.0,23.0,81,0.00,,,0.00,weatherlink.com 1.10,2013-04-16 10:00:00,
2013-04-16 05:15:00,69.4,63.0,29.74,South,181,10.0,16.0,81,0.00,,,0.00,weatherlink.com 1.10,2013-04-16 10:15:00,
2013-04-16 05:30:00,69.5,63.0,29.75,South,181,10.0,22.0,81,0.00,,,0.00,weatherlink.com 1.10,2013-04-16 10:30:00,
2013-04-16 05:45:00,69.5,63.0,29.75,South,177,8.0,21.0,81,0.00,,,0.00,weatherlink.com 1.10,2013-04-16 10:45:00,
2013-04-16 06:00:00,69.3,64.0,29.76,South,177,7.0,14.0,82,0.00,,,0.00,weatherlink.com 1.10,2013-04-16 11:00:00,
2013-04-16 06:15:00,69.3,64.0,29.77,South,172,5.0,16.0,82,0.00,,,0.00,weatherlink.com 1.10,2013-04-16 11:15:00,
2013-04-16 06:30:00,69.1,63.0,29.77,South,178,8.0,15.0,82,0.00,,,0.00,weatherlink.com 1.10,2013-04-16 11:30:00,
2013-04-16 06:45:00,69.0,64.0,29.78,South,173,9.0,14.0,83,0.00,,,0.00,weatherlink.com 1.10,2013-04-16 11:45:00,
2013-04-16 07:00:00,68.9,64.0,29.78,South,174,5.0,13.0,83,0.00,,,0.00,weatherlink.com 1.10,2013-04-16 12:00:00,
2013-04-16 07:15:00,68.6,64.0,29.78,South,169,5.0,14.0,84,0.00,,,0.00,weatherlink.com 1.10,2013-04-16 12:15:00,
2013-04-16 07:30:00,68.6,64.0,29.78,SSE,167,7.0,10.0,84,0.00,,,0.00,weatherlink.com 1.10,2013-04-16 12:30:00,
2013-04-16 07:45:00,68.6,64.0,29.79,SSE,167,5.0,9.0,84,0.00,,,0.00,weatherlink.com 1.10,2013-04-16 12:45:00,
2013-04-16 08:00:00,68.9,64.0,29.79,South,169,4.0,10.0,84,0.00,,,0.00,weatherlink.com 1.10,2013-04-16 13:00:00,
2013-04-16 08:15:00,68.7,64.0,29.79,SSE,164,8.0,9.0,85,0.00,,,0.00,weatherlink.com 1.10,2013-04-16 13:15:00,
2013-04-16 08:30:00,69.2,64.0,29.80,SSE,161,7.0,9.0,84,0.00,,,0.00,weatherlink.com 1.10,2013-04-16 13:30:00,
2013-04-16 08:45:00,69.8,64.0,29.80,SSE,157,5.0,13.0,83,0.00,,,0.00,weatherlink.com 1.10,2013-04-16 13:45:00,
2013-04-16 09:00:00,70.2,65.0,29.81,SSE,150,9.0,14.0,82,0.00,,,0.00,weatherlink.com 1.10,2013-04-16 14:00:00,
2013-04-16 09:15:00,71.1,65.0,29.81,SSE,165,10.0,16.0,80,0.00,,,0.00,weatherlink.com 1.10,2013-04-16 14:15:00,
2013-04-16 09:30:00,71.5,64.0,29.81,South,171,17.0,17.0,78,0.00,,,0.00,weatherlink.com 1.10,2013-04-16 14:30:00,
2013-04-16 09:45:00,72.6,65.0,29.81,South,170,13.0,17.0,77,0.00,,,0.00,weatherlink.com 1.10,2013-04-16 14:45:00,
2013-04-16 10:00:00,72.9,65.0,29.81,SSE,165,11.0,14.0,76,0.00,,,0.00,weatherlink.com 1.10,2013-04-16 15:00:00,
2013-04-16 10:15:00,73.9,66.0,29.81,South,172,11.0,16.0,75,0.00,,,0.00,weatherlink.com 1.10,2013-04-16 15:15:00,
2013-04-16 10:30:00,74.0,65.0,29.82,South,177,12.0,17.0,73,0.00,,,0.00,weatherlink.com 1.10,2013-04-16 15:30:00,
2013-04-16 10:45:00,74.7,66.0,29.81,South,169,9.0,14.0,73,0.00,,,0.00,weatherlink.com 1.10,2013-04-16 15:45:00,
2013-04-16 11:00:00,74.9,66.0,29.81,SSE,154,15.0,18.0,73,0.00,,,0.00,weatherlink.com 1.10,2013-04-16 16:00:00,
2013-04-16 11:15:00,74.4,66.0,29.81,SSE,168,12.0,16.0,74,0.00,,,0.00,weatherlink.com 1.10,2013-04-16 16:15:00,
2013-04-16 11:30:00,75.0,65.0,29.82,South,177,7.0,17.0,72,0.00,,,0.00,weatherlink.com 1.10,2013-04-16 16:30:00,
2013-04-16 11:45:00,75.6,66.0,29.81,South,169,7.0,16.0,72,0.00,,,0.00,weatherlink.com 1.10,2013-04-16 16:45:00,
2013-04-16 12:00:00,76.4,67.0,29.81,SSE,158,8.0,13.0,72,0.00,,,0.00,weatherlink.com 1.10,2013-04-16 17:00:00,
2013-04-16 12:15:00,76.5,67.0,29.79,SSE,154,8.0,16.0,72,0.00,,,0.00,weatherlink.com 1.10,2013-04-16 17:15:00,
2013-04-16 12:30:00,78.1,67.0,29.80,South,171,12.0,12.0,69,0.00,,,0.00,weatherlink.com 1.10,2013-04-16 17:30:00,
2013-04-16 12:45:00,81.2,67.0,29.79,South,177,11.0,15.0,63,0.00,,,0.00,weatherlink.com 1.10,2013-04-16 17:45:00,
2013-04-16 13:01:00,81.4,67.0,29.77,SSE,168,15.0,18.0,62,0.00,,,0.00,weatherlink.com 1.10,2013-04-16 18:01:00,
2013-04-16 13:16:00,82.5,67.0,29.77,South,169,13.0,17.0,60,0.00,,,0.00,weatherlink.com 1.10,2013-04-16 18:16:00,
2013-04-16 13:31:00,81.8,66.0,29.76,South,179,10.0,17.0,60,0.00,,,0.00,weatherlink.com 1.10,2013-04-16 18:31:00,
2013-04-16 13:46:00,82.9,67.0,29.75,South,178,14.0,21.0,58,0.00,,,0.00,weatherlink.com 1.10,2013-04-16 18:46:00,
2013-04-16 14:01:00,84.2,68.0,29.75,SSE,164,16.0,19.0,58,0.00,,,0.00,weatherlink.com 1.10,2013-04-16 19:01:00,
2013-04-16 14:16:00,84.3,68.0,29.75,SSE,166,10.0,22.0,58,0.00,,,0.00,weatherlink.com 1.10,2013-04-16 19:16:00,
2013-04-16 14:31:00,84.5,68.0,29.75,South,171,11.0,22.0,57,0.00,,,0.00,weatherlink.com 1.10,2013-04-16 19:31:00,
2013-04-16 15:01:00,85.9,68.0,29.74,SSE,165,12.0,17.0,56,0.00,,,0.00,weatherlink.com 1.10,2013-04-16 20:01:00,
2013-04-16 15:31:00,85.1,69.0,29.72,SSE,156,13.0,18.0,59,0.00,,,0.00,weatherlink.com 1.10,2013-04-16 20:31:00,
2013-04-16 16:16:00,85.3,68.0,29.72,SSE,159,20.0,27.0,57,0.00,,,0.00,weatherlink.com 1.10,2013-04-16 21:16:00,
2013-04-16 16:31:00,85.0,68.0,29.72,SSE,148,16.0,24.0,57,0.00,,,0.00,weatherlink.com 1.10,2013-04-16 21:31:00,
2013-04-16 16:46:00,84.5,68.0,29.71,SSE,154,23.0,23.0,58,0.00,,,0.00,weatherlink.com 1.10,2013-04-16 21:46:00,
2013-04-16 17:01:00,84.0,67.0,29.71,SSE,160,20.0,27.0,57,0.00,,,0.00,weatherlink.com 1.10,2013-04-16 22:01:00,
2013-04-16 17:16:00,84.1,68.0,29.72,South,180,16.0,26.0,59,0.00,,,0.00,weatherlink.com 1.10,2013-04-16 22:16:00,
2013-04-16 17:31:00,83.9,67.0,29.72,SSE,158,23.0,28.0,58,0.00,,,0.00,weatherlink.com 1.10,2013-04-16 22:31:00,
2013-04-16 17:46:00,83.0,68.0,29.73,SSE,163,18.0,25.0,60,0.00,,,0.00,weatherlink.com 1.10,2013-04-16 22:46:00,
2013-04-16 18:01:00,82.6,68.0,29.73,SSE,152,16.0,26.0,61,0.00,,,0.00,weatherlink.com 1.10,2013-04-16 23:01:00,
2013-04-16 18:15:00,81.8,68.0,29.73,SSE,150,18.0,22.0,63,0.00,,,0.00,weatherlink.com 1.10,2013-04-16 23:15:00,
2013-04-16 18:30:00,81.8,68.0,29.73,SSE,158,15.0,25.0,63,0.00,,,0.00,weatherlink.com 1.10,2013-04-16 23:30:00,
2013-04-16 18:45:00,81.2,68.0,29.73,SSE,168,14.0,21.0,65,0.00,,,0.00,weatherlink.com 1.10,2013-04-16 23:45:00,
2013-04-16 19:00:00,80.0,68.0,29.74,SSE,156,15.0,21.0,67,0.00,,,0.00,weatherlink.com 1.10,2013-04-17 00:00:00,
2013-04-16 19:15:00,80.2,68.0,29.74,SE,138,15.0,23.0,67,0.00,,,0.00,weatherlink.com 1.10,2013-04-17 00:15:00,
2013-04-16 19:30:00,80.3,68.0,29.75,SE,146,16.0,24.0,66,0.00,,,0.00,weatherlink.com 1.10,2013-04-17 00:30:00,
2013-04-16 19:45:00,80.3,68.0,29.74,SSE,152,14.0,25.0,66,0.00,,,0.00,weatherlink.com 1.10,2013-04-17 00:45:00,
2013-04-16 20:00:00,79.0,68.0,29.74,SSE,150,14.0,17.0,69,0.00,,,0.00,weatherlink.com 1.10,2013-04-17 01:00:00,
2013-04-16 20:15:00,79.1,68.0,29.75,SSE,149,13.0,19.0,69,0.00,,,0.00,weatherlink.com 1.10,2013-04-17 01:15:00,
2013-04-16 20:30:00,78.7,68.0,29.75,SSE,153,18.0,18.0,70,0.00,,,0.00,weatherlink.com 1.10,2013-04-17 01:30:00,
2013-04-16 20:45:00,77.7,68.0,29.75,SSE,151,10.0,19.0,72,0.00,,,0.00,weatherlink.com 1.10,2013-04-17 01:45:00,
2013-04-16 21:00:00,77.3,68.0,29.76,SSE,154,17.0,21.0,72,0.00,,,0.00,weatherlink.com 1.10,2013-04-17 02:00:00,
2013-04-16 21:15:00,76.6,67.0,29.77,SSE,157,15.0,22.0,72,0.00,,,0.00,weatherlink.com 1.10,2013-04-17 02:15:00,
2013-04-16 21:30:00,76.3,66.0,29.78,SSE,157,17.0,23.0,71,0.00,,,0.00,weatherlink.com 1.10,2013-04-17 02:30:00,
2013-04-16 21:45:00,75.5,66.0,29.79,SSE,161,18.0,23.0,72,0.00,,,0.00,weatherlink.com 1.10,2013-04-17 02:45:00,
2013-04-16 22:00:00,75.3,66.0,29.79,SE,145,15.0,19.0,73,0.00,,,0.00,weatherlink.com 1.10,2013-04-17 03:00:00,
2013-04-16 22:15:00,74.7,67.0,29.79,SSE,149,21.0,23.0,76,0.00,,,0.00,weatherlink.com 1.10,2013-04-17 03:15:00,
2013-04-16 22:30:00,74.5,67.0,29.79,SSE,154,14.0,22.0,77,0.00,,,0.00,weatherlink.com 1.10,2013-04-17 03:30:00,
2013-04-16 22:45:00,74.0,67.0,29.80,SSE,149,8.0,17.0,79,0.00,,,0.00,weatherlink.com 1.10,2013-04-17 03:45:00,
2013-04-16 23:00:00,74.1,68.0,29.81,SSE,156,16.0,21.0,80,0.00,,,0.00,weatherlink.com 1.10,2013-04-17 04:00:00,
2013-04-16 23:15:00,73.8,68.0,29.80,SSE,155,14.0,22.0,81,0.00,,,0.00,weatherlink.com 1.10,2013-04-17 04:15:00,
2013-04-16 23:30:00,74.0,68.0,29.80,SSE,164,16.0,28.0,82,0.00,,,0.00,weatherlink.com 1.10,2013-04-17 04:30:00,
2013-04-16 23:45:00,73.9,69.0,29.80,South,172,18.0,23.0,83,0.00,,,0.00,weatherlink.com 1.10,2013-04-17 04:45:00,